Osage, West Virginia
Current Conditions -  °F | °C
As of 4:53 AM on Saturday 29 Nov 2014 (Local Time) from KMGW Reporting Station
Broken Clouds Broken Clouds  
Wind Chill: 32°   Ceiling: 11000
Heat Index: 32°   Visibility: 10mi
Dew Point: 14°   Wind: 3mph
Humidity: 47%   Direction: 110°ESE
Pressure: 30.15"   Gusts: NA
Location:  39.66°N, 80.01°W
Report Text: KMGW 290953Z AUTO 11003KT 10SM BKN110 00/M10 A3015 RMK AO2 SLP222 T00001100 TSNO
Loading
Personal Weather Stations






























Interactive Weather Map New forecast layout! Learn more

10-Day Weather Forecast

Advertisements
Track Severe Weather on mobile